createdAt,value
2022-09-02T00:01:24.387Z,44.99
2022-09-02T00:03:55.053Z,44.79
2022-09-02T00:06:22.083Z,46.02
2022-09-02T00:08:49.795Z,44.56
2022-09-02T00:11:20.122Z,44.79
2022-09-02T00:13:47.209Z,44.93
2022-09-02T00:16:14.345Z,44.88
2022-09-02T00:18:44.960Z,44.68
2022-09-02T00:21:14.367Z,45.23
2022-09-02T00:23:43.113Z,44.95
2022-09-02T00:26:09.788Z,44.81
2022-09-02T00:28:36.721Z,44.72
2022-09-02T00:31:03.307Z,45.22
2022-09-02T00:33:31.546Z,45.56
2022-09-02T00:36:00.924Z,45.13
2022-09-02T00:38:28.773Z,45.67
2022-09-02T00:40:55.491Z,46.00
2022-09-02T00:43:39.494Z,46.16
2022-09-02T00:46:08.234Z,46.02
2022-09-02T00:48:37.925Z,45.19
2022-09-02T00:51:04.695Z,44.67
2022-09-02T00:53:33.948Z,43.96
2022-09-02T00:56:02.128Z,43.83
2022-09-02T00:58:34.033Z,44.68
2022-09-02T01:01:00.905Z,45.27
2022-09-02T01:03:30.986Z,44.90
2022-09-02T01:05:59.446Z,47.43
2022-09-02T01:08:30.036Z,46.77
2022-09-02T01:10:57.118Z,45.39
2022-09-02T01:13:27.207Z,45.75
2022-09-02T01:16:13.173Z,46.68
2022-09-02T01:18:41.890Z,46.50
2022-09-02T01:21:08.858Z,45.44
2022-09-02T01:23:36.188Z,46.04
2022-09-02T01:26:05.145Z,45.05
2022-09-02T01:28:33.453Z,45.35
2022-09-02T01:31:00.866Z,46.06
2022-09-02T01:33:27.504Z,45.87
2022-09-02T01:35:55.434Z,45.32
2022-09-02T01:38:23.741Z,45.90
2022-09-02T01:40:50.932Z,45.71
2022-09-02T01:43:20.949Z,45.52
2022-09-02T01:45:51.944Z,46.13
2022-09-02T01:48:21.531Z,46.31
2022-09-02T01:50:56.593Z,46.63
2022-09-02T01:53:23.625Z,46.00
2022-09-02T01:55:52.791Z,45.98
2022-09-02T01:58:20.311Z,45.66
2022-09-02T02:00:48.384Z,45.74
2022-09-02T02:03:15.328Z,45.74
2022-09-02T02:05:42.562Z,45.44
2022-09-02T02:08:09.813Z,45.48
2022-09-02T02:10:36.591Z,45.43
2022-09-02T02:13:04.875Z,45.03
2022-09-02T02:17:59.028Z,43.81
2022-09-02T02:20:27.039Z,44.44
2022-09-02T02:22:53.830Z,44.44
2022-09-02T02:25:20.869Z,44.81
2022-09-02T02:27:51.289Z,44.84
2022-09-02T02:30:21.362Z,44.60
2022-09-02T02:32:48.466Z,44.02
2022-09-02T02:35:19.238Z,43.99
2022-09-02T02:37:49.175Z,43.83
2022-09-02T02:40:21.942Z,43.11
2022-09-02T02:42:53.133Z,43.60
2022-09-02T02:45:23.185Z,44.26
2022-09-02T02:47:51.080Z,43.91
2022-09-02T02:50:20.701Z,44.04
2022-09-02T02:52:48.833Z,44.47
2022-09-02T02:55:17.110Z,45.03
2022-09-02T02:57:44.498Z,44.97
2022-09-02T03:00:12.005Z,44.06
2022-09-02T03:02:39.324Z,43.78
2022-09-02T03:05:09.536Z,43.44
2022-09-02T03:07:36.208Z,43.32
2022-09-02T03:10:08.278Z,44.12
2022-09-02T03:12:37.220Z,47.05
2022-09-02T03:15:04.681Z,47.89
2022-09-02T03:17:31.430Z,48.66
2022-09-02T03:19:59.708Z,48.84
2022-09-02T03:22:29.166Z,48.60
2022-09-02T03:24:56.610Z,48.35
2022-09-02T03:27:23.630Z,48.54
2022-09-02T03:29:51.123Z,48.84
2022-09-02T03:32:17.966Z,49.45
2022-09-02T03:34:45.939Z,50.40
2022-09-02T03:37:12.579Z,49.99
2022-09-02T03:39:41.214Z,49.79
2022-09-02T03:42:08.109Z,50.06
2022-09-02T03:44:47.684Z,49.84
2022-09-02T03:47:15.143Z,50.06
2022-09-02T03:49:41.818Z,49.71
2022-09-02T03:52:11.499Z,49.83
2022-09-02T03:54:38.691Z,50.04
2022-09-02T03:57:06.090Z,50.08
2022-09-02T03:59:33.089Z,49.97
2022-09-02T04:02:02.766Z,50.16
2022-09-02T04:04:30.572Z,49.78
2022-09-02T04:06:58.105Z,50.16
2022-09-02T04:09:26.671Z,49.93
2022-09-02T04:11:53.679Z,50.21
2022-09-02T04:14:20.453Z,50.50
2022-09-02T04:16:47.456Z,49.77
2022-09-02T04:19:14.699Z,49.51
2022-09-02T04:21:42.219Z,49.96
2022-09-02T04:24:11.515Z,50.41
2022-09-02T04:26:45.310Z,50.39
2022-09-02T04:29:15.519Z,49.93
2022-09-02T04:31:43.455Z,49.85
2022-09-02T04:34:11.112Z,49.55
2022-09-02T04:36:37.845Z,49.32
2022-09-02T04:39:09.432Z,49.69
2022-09-02T04:41:37.737Z,49.69
2022-09-02T04:44:08.006Z,50.13
2022-09-02T04:46:38.521Z,50.34
2022-09-02T04:49:08.740Z,49.75
2022-09-02T04:51:38.130Z,51.36
2022-09-02T04:54:06.750Z,51.86
2022-09-02T04:56:33.838Z,52.30
2022-09-02T04:59:02.397Z,52.09
2022-09-02T05:01:32.755Z,51.92
2022-09-02T05:04:09.939Z,52.98
2022-09-02T05:06:44.259Z,52.44
2022-09-02T05:09:15.466Z,51.23
2022-09-02T05:11:42.564Z,48.40
2022-09-02T05:14:09.601Z,45.94
2022-09-02T05:16:40.089Z,44.98
2022-09-02T05:19:11.814Z,43.33
2022-09-02T05:21:45.022Z,42.22
2022-09-02T05:24:17.776Z,40.06
2022-09-02T05:26:44.994Z,38.95
2022-09-02T05:29:14.206Z,38.19
2022-09-02T05:31:42.418Z,37.00
2022-09-02T05:34:14.007Z,36.10
2022-09-02T05:36:41.612Z,35.55
2022-09-02T05:39:09.303Z,35.65
2022-09-02T05:41:37.377Z,34.86
2022-09-02T05:44:06.752Z,34.71
2022-09-02T05:46:35.408Z,34.55
2022-09-02T05:49:07.563Z,34.42
2022-09-02T05:51:44.314Z,33.66
2022-09-02T05:54:15.673Z,32.76
2022-09-02T05:56:44.917Z,33.95
2022-09-02T05:59:13.485Z,33.00
2022-09-02T06:01:41.227Z,32.96
2022-09-02T06:04:08.181Z,32.08
2022-09-02T06:06:38.646Z,32.61
2022-09-02T06:09:08.526Z,32.50
2022-09-02T06:11:42.850Z,31.96
2022-09-02T06:14:11.417Z,31.82
2022-09-02T06:16:38.929Z,32.10
2022-09-02T06:19:10.206Z,31.85
2022-09-02T06:21:38.734Z,31.94
2022-09-02T06:24:07.231Z,31.93
2022-09-02T06:26:36.300Z,31.82
2022-09-02T06:29:03.990Z,31.72
2022-09-02T06:31:34.583Z,31.23
2022-09-02T06:34:03.655Z,30.97
2022-09-02T06:36:31.746Z,30.33
2022-09-02T06:39:01.014Z,30.58
2022-09-02T06:41:33.369Z,29.96
2022-09-02T06:44:07.083Z,29.45
2022-09-02T06:46:39.537Z,29.41
2022-09-02T06:49:09.161Z,29.93
2022-09-02T06:51:40.286Z,30.05
2022-09-02T06:54:10.137Z,29.28
2022-09-02T06:56:38.777Z,29.34
2022-09-02T06:59:07.334Z,29.23
2022-09-02T07:01:54.297Z,28.73
2022-09-02T07:04:41.936Z,28.55
2022-09-02T07:07:12.332Z,27.63
2022-09-02T07:09:50.054Z,27.63
2022-09-02T07:12:19.544Z,28.07
2022-09-02T07:15:07.665Z,27.04
2022-09-02T07:17:38.558Z,27.62
2022-09-02T07:20:10.374Z,28.51
2022-09-02T07:22:42.475Z,27.83
2022-09-02T07:25:11.421Z,28.19
2022-09-02T07:27:38.286Z,27.30
2022-09-02T07:30:06.725Z,27.99
2022-09-02T07:32:37.424Z,27.67
2022-09-02T07:35:06.956Z,27.18
2022-09-02T07:37:35.153Z,27.94
2022-09-02T07:40:08.184Z,27.32
2022-09-02T07:42:35.260Z,28.36
2022-09-02T07:45:02.141Z,28.27
2022-09-02T07:47:29.030Z,28.12
2022-09-02T07:52:43.025Z,28.06
2022-09-02T07:55:14.885Z,27.85
2022-09-02T07:57:43.062Z,28.28
2022-09-02T08:00:12.186Z,27.59
2022-09-02T08:02:41.628Z,28.09
2022-09-02T08:05:11.357Z,28.85
2022-09-02T08:07:38.303Z,29.27
2022-09-02T08:10:09.967Z,29.01
2022-09-02T08:12:37.981Z,29.39
2022-09-02T08:15:05.541Z,29.41
2022-09-02T08:17:32.713Z,29.49
2022-09-02T08:19:59.334Z,29.29
2022-09-02T08:22:26.995Z,28.79
2022-09-02T08:24:53.566Z,28.53
2022-09-02T08:27:20.290Z,29.60
2022-09-02T08:29:47.216Z,29.79
2022-09-02T08:32:13.831Z,30.51
2022-09-02T08:34:40.437Z,30.52
2022-09-02T08:37:07.198Z,29.61
2022-09-02T08:39:33.867Z,30.13
2022-09-02T08:42:19.212Z,30.06
2022-09-02T08:44:47.284Z,30.42
2022-09-02T08:47:22.828Z,30.06
2022-09-02T08:49:53.434Z,30.05
2022-09-02T08:52:33.761Z,30.08
2022-09-02T08:55:02.716Z,31.49
2022-09-02T08:57:32.361Z,31.94
2022-09-02T09:00:02.439Z,31.59
2022-09-02T09:03:32.928Z,32.47
2022-09-02T09:06:14.816Z,32.83
2022-09-02T09:09:23.455Z,32.12
2022-09-02T09:12:07.703Z,33.36
2022-09-02T09:14:56.070Z,33.20
2022-09-02T09:17:30.388Z,34.58
2022-09-02T09:20:03.073Z,34.46
2022-09-02T09:22:33.398Z,34.60
2022-09-02T09:25:01.010Z,35.75
2022-09-02T09:27:28.273Z,34.67
2022-09-02T09:29:55.727Z,35.08
2022-09-02T09:32:33.617Z,35.35
2022-09-02T09:35:10.752Z,35.16
2022-09-02T09:37:38.722Z,35.77
2022-09-02T09:40:23.348Z,37.05
2022-09-02T09:43:14.658Z,36.72
2022-09-02T09:45:49.874Z,37.38
2022-09-02T09:48:16.718Z,37.71
2022-09-02T09:50:44.895Z,37.65
2022-09-02T09:53:18.360Z,37.76
2022-09-02T09:55:52.804Z,37.79
2022-09-02T09:58:22.098Z,36.92
2022-09-02T10:00:49.165Z,37.05
2022-09-02T10:03:23.742Z,37.34
2022-09-02T10:05:57.301Z,37.34
2022-09-02T10:08:26.759Z,36.76
2022-09-02T10:11:21.567Z,37.27
2022-09-02T10:13:48.202Z,36.38
2022-09-02T10:16:45.342Z,37.18
2022-09-02T10:19:22.892Z,36.53
2022-09-02T10:22:07.480Z,36.42
2022-09-02T10:24:55.221Z,37.13
2022-09-02T10:27:32.169Z,37.21
2022-09-02T10:30:22.035Z,36.63
2022-09-02T10:33:13.396Z,36.88
2022-09-02T10:35:44.519Z,37.08
2022-09-02T10:38:39.791Z,36.67
2022-09-02T10:44:38.152Z,36.44
2022-09-02T10:47:29.470Z,35.87
2022-09-02T10:50:13.444Z,36.72
2022-09-02T10:52:58.524Z,36.67
2022-09-02T10:55:51.342Z,38.49
2022-09-02T10:58:25.340Z,38.34
2022-09-02T11:00:56.783Z,37.98
2022-09-02T11:03:29.724Z,36.94
2022-09-02T11:06:22.071Z,37.11
2022-09-02T11:09:12.405Z,37.62
2022-09-02T11:11:45.870Z,37.90
2022-09-02T11:14:35.574Z,37.43
2022-09-02T11:17:16.534Z,37.22
2022-09-02T11:20:09.030Z,37.20
2022-09-02T11:23:03.455Z,36.70
2022-09-02T11:25:38.687Z,36.23
2022-09-02T11:28:30.014Z,36.98
2022-09-02T11:31:06.748Z,36.10
2022-09-02T11:33:51.280Z,36.79
2022-09-02T11:36:18.488Z,36.66
2022-09-02T11:38:58.570Z,36.73
2022-09-02T11:41:35.433Z,36.07
2022-09-02T11:44:30.840Z,36.78
2022-09-02T11:47:08.935Z,36.76
2022-09-02T11:49:50.618Z,36.06
2022-09-02T11:52:33.879Z,35.10
2022-09-02T11:55:17.632Z,34.67
2022-09-02T11:57:53.831Z,35.34
2022-09-02T12:00:36.753Z,35.32
2022-09-02T12:03:16.629Z,35.75
2022-09-02T12:05:52.318Z,34.35
2022-09-02T12:08:28.098Z,35.69
2022-09-02T12:11:00.013Z,35.06
2022-09-02T12:16:42.421Z,35.69
2022-09-02T12:19:10.653Z,35.09
2022-09-02T12:22:15.142Z,34.56
2022-09-02T12:24:55.146Z,34.29
2022-09-02T12:27:26.122Z,34.19
2022-09-02T12:29:53.270Z,34.16
2022-09-02T12:32:48.841Z,34.08
2022-09-02T12:35:34.754Z,34.03
2022-09-02T12:38:11.765Z,33.68
2022-09-02T12:40:56.253Z,33.32
2022-09-02T12:43:57.688Z,33.71
2022-09-02T12:46:36.506Z,33.43
2022-09-02T12:49:22.057Z,33.15
2022-09-02T12:51:55.342Z,33.29
2022-09-02T12:54:29.794Z,33.69
2022-09-02T12:56:56.456Z,33.81
2022-09-02T12:59:30.093Z,34.53
2022-09-02T13:02:35.125Z,34.21
2022-09-02T13:05:28.569Z,33.41
2022-09-02T13:08:04.442Z,33.92
2022-09-02T13:11:21.967Z,34.39
2022-09-02T13:14:30.057Z,34.15
2022-09-02T13:17:35.709Z,33.67
2022-09-02T13:20:32.415Z,34.07
2022-09-02T13:23:16.323Z,33.24
2022-09-02T13:26:02.765Z,34.53
2022-09-02T13:28:46.141Z,35.23
2022-09-02T13:31:27.466Z,34.14
2022-09-02T13:34:03.668Z,34.91
2022-09-02T13:36:36.493Z,34.64
2022-09-02T13:39:26.802Z,35.53
2022-09-02T13:41:54.567Z,34.57
2022-09-02T13:44:29.427Z,34.62
2022-09-02T13:47:03.259Z,34.17
2022-09-02T13:49:37.943Z,33.77
2022-09-02T13:52:12.173Z,34.11
2022-09-02T13:54:48.503Z,34.44
2022-09-02T13:57:20.798Z,34.40
2022-09-02T13:59:50.256Z,34.00
2022-09-02T14:02:25.918Z,34.46
2022-09-02T14:05:20.276Z,33.87
2022-09-02T14:07:51.390Z,34.08
2022-09-02T14:10:23.232Z,34.26
2022-09-02T14:12:51.143Z,33.63
2022-09-02T14:15:27.756Z,34.19
2022-09-02T14:18:08.798Z,34.20
2022-09-02T14:20:36.834Z,34.35
2022-09-02T14:23:03.767Z,34.00
2022-09-02T14:25:37.987Z,34.33
2022-09-02T14:28:20.542Z,33.71
2022-09-02T14:31:05.439Z,33.79
2022-09-02T14:33:44.474Z,33.27
2022-09-02T14:36:23.626Z,33.76
2022-09-02T14:38:55.746Z,33.91
2022-09-02T14:41:47.206Z,33.16
2022-09-02T14:44:23.526Z,33.60
2022-09-02T14:46:53.011Z,33.78
2022-09-02T14:49:28.841Z,33.39
2022-09-02T14:51:58.806Z,33.18
2022-09-02T14:54:40.052Z,32.23
2022-09-02T14:57:19.143Z,31.69
2022-09-02T14:59:45.810Z,32.04
2022-09-02T15:02:27.596Z,32.66
2022-09-02T15:04:59.089Z,33.06
2022-09-02T15:07:26.600Z,33.60
2022-09-02T15:09:53.478Z,34.28
2022-09-02T15:12:24.629Z,33.64
2022-09-02T15:14:54.286Z,33.83
2022-09-02T15:17:21.221Z,33.82
2022-09-02T15:19:48.423Z,34.69
2022-09-02T15:22:16.395Z,34.01
2022-09-02T15:24:46.896Z,34.44
2022-09-02T15:27:14.270Z,33.54
2022-09-02T15:29:43.969Z,33.79
2022-09-02T15:32:10.922Z,34.24
2022-09-02T15:34:37.551Z,34.66
2022-09-02T15:37:04.918Z,33.99
2022-09-02T15:39:31.567Z,33.77
2022-09-02T15:41:58.660Z,33.92
2022-09-02T15:44:25.921Z,34.29
2022-09-02T15:46:53.594Z,34.79
2022-09-02T15:49:21.791Z,34.01
2022-09-02T15:51:49.801Z,33.75
2022-09-02T15:54:19.106Z,34.47
2022-09-02T15:56:47.683Z,33.92
2022-09-02T15:59:17.558Z,33.50
2022-09-02T16:01:46.224Z,34.05
2022-09-02T16:04:13.896Z,33.85
2022-09-02T16:06:42.858Z,35.12
2022-09-02T16:09:11.740Z,35.22
2022-09-02T16:11:40.089Z,35.62
2022-09-02T16:14:07.479Z,35.28
2022-09-02T16:16:35.796Z,34.85
2022-09-02T16:19:05.143Z,34.83
2022-09-02T16:21:31.927Z,34.64
2022-09-02T16:23:59.015Z,34.89
2022-09-02T16:26:31.349Z,35.67
2022-09-02T16:29:00.371Z,35.43
2022-09-02T16:31:29.825Z,35.14
2022-09-02T16:33:59.494Z,34.36
2022-09-02T16:36:29.100Z,34.80
2022-09-02T16:39:01.093Z,34.99
2022-09-02T16:41:32.351Z,34.70
2022-09-02T16:44:00.814Z,35.40
2022-09-02T16:46:29.345Z,34.89
2022-09-02T16:48:56.533Z,34.55
2022-09-02T16:51:24.684Z,35.54
2022-09-02T16:54:09.593Z,35.96
2022-09-02T16:56:44.494Z,36.29
2022-09-02T16:59:12.688Z,35.58
2022-09-02T17:01:40.477Z,35.18
2022-09-02T17:04:08.767Z,35.28
2022-09-02T17:06:41.280Z,35.86
2022-09-02T17:09:09.239Z,35.98
2022-09-02T17:11:39.761Z,35.49
2022-09-02T17:14:11.961Z,35.32
2022-09-02T17:16:44.341Z,35.46
2022-09-02T17:19:12.201Z,35.60
2022-09-02T17:21:43.908Z,35.52
2022-09-02T17:24:12.645Z,35.51
2022-09-02T17:26:41.254Z,35.18
2022-09-02T17:29:26.270Z,36.49
2022-09-02T17:31:59.806Z,36.67
2022-09-02T17:34:26.616Z,36.07
2022-09-02T17:36:53.417Z,36.41
2022-09-02T17:39:20.595Z,36.71
2022-09-02T17:41:54.319Z,35.29
2022-09-02T17:44:26.956Z,34.88
2022-09-02T17:46:55.841Z,35.55
2022-09-02T17:49:22.546Z,36.21
2022-09-02T17:51:49.555Z,35.53
2022-09-02T17:54:16.490Z,35.54
2022-09-02T17:57:09.748Z,35.16
2022-09-02T18:00:04.035Z,35.24
2022-09-02T18:03:22.565Z,35.82
2022-09-02T18:05:52.233Z,35.55
2022-09-02T18:08:47.595Z,35.37
2022-09-02T18:11:14.232Z,35.59
2022-09-02T18:13:48.021Z,35.57
2022-09-02T18:16:29.334Z,36.27
2022-09-02T18:19:13.831Z,36.09
2022-09-02T18:22:11.542Z,37.37
2022-09-02T18:24:46.246Z,37.59
2022-09-02T18:27:40.687Z,37.33
2022-09-02T18:30:14.915Z,37.58
2022-09-02T18:32:55.162Z,37.39
2022-09-02T18:35:45.151Z,36.80
2022-09-02T18:38:38.754Z,37.50
2022-09-02T18:41:05.602Z,37.57
2022-09-02T18:43:54.490Z,37.51
2022-09-02T18:46:24.902Z,37.96
2022-09-02T18:48:56.625Z,37.41
2022-09-02T18:51:40.862Z,37.80
2022-09-02T18:54:19.293Z,37.58
2022-09-02T18:56:53.546Z,38.02
2022-09-02T18:59:31.777Z,38.38
2022-09-02T19:02:06.583Z,37.83
2022-09-02T19:04:36.944Z,37.77
2022-09-02T19:07:23.937Z,38.40
2022-09-02T19:09:50.981Z,38.34
2022-09-02T19:12:17.819Z,38.52
2022-09-02T19:14:44.357Z,38.55
2022-09-02T19:17:12.820Z,38.42
2022-09-02T19:19:39.436Z,38.09
2022-09-02T19:22:10.331Z,38.59
2022-09-02T19:24:43.239Z,38.47
2022-09-02T19:27:13.320Z,38.91
2022-09-02T19:29:44.772Z,39.09
2022-09-02T19:32:12.972Z,38.94
2022-09-02T19:34:44.379Z,38.50
2022-09-02T19:37:13.416Z,38.47
2022-09-02T19:39:40.760Z,38.73
2022-09-02T19:42:07.487Z,38.93
2022-09-02T19:44:34.049Z,39.09
2022-09-02T19:49:48.017Z,39.99
2022-09-02T19:52:14.939Z,40.40
2022-09-02T19:54:41.697Z,39.70
2022-09-02T19:57:08.301Z,40.07
2022-09-02T19:59:34.863Z,40.53
2022-09-02T20:02:04.486Z,40.20
2022-09-02T20:04:32.106Z,40.61
2022-09-02T20:06:58.849Z,41.03
2022-09-02T20:09:25.937Z,40.73
2022-09-02T20:11:56.732Z,40.35
2022-09-02T20:14:23.774Z,39.87
2022-09-02T20:16:56.746Z,41.01
2022-09-02T20:19:23.924Z,40.43
2022-09-02T20:21:53.526Z,40.32
2022-09-02T20:24:31.121Z,40.46
2022-09-02T20:27:06.751Z,40.42
2022-09-02T20:30:08.879Z,40.12
2022-09-02T20:33:01.686Z,40.64
2022-09-02T20:35:44.286Z,40.09
2022-09-02T20:38:29.138Z,41.03
2022-09-02T20:41:20.560Z,40.54
2022-09-02T20:44:07.206Z,40.18
2022-09-02T20:46:58.661Z,40.79
2022-09-02T20:50:01.552Z,40.74
2022-09-02T20:53:01.222Z,41.16
2022-09-02T20:55:39.007Z,40.62
2022-09-02T20:58:22.138Z,41.06
2022-09-02T21:01:11.734Z,40.41
2022-09-02T21:03:44.403Z,40.98
2022-09-02T21:06:11.190Z,41.43
2022-09-02T21:08:47.666Z,41.50
2022-09-02T21:11:16.142Z,41.06
2022-09-02T21:13:51.355Z,41.41
2022-09-02T21:16:23.920Z,40.89
2022-09-02T21:19:23.715Z,41.09
2022-09-02T21:22:05.725Z,40.95
2022-09-02T21:24:36.398Z,41.13
2022-09-02T21:27:20.688Z,41.47
2022-09-02T21:30:05.746Z,41.83
2022-09-02T21:32:41.444Z,41.75
2022-09-02T21:35:13.473Z,40.99
2022-09-02T21:37:43.799Z,41.04
2022-09-02T21:40:15.711Z,41.99
2022-09-02T21:43:10.350Z,42.10
2022-09-02T21:45:54.350Z,42.31
2022-09-02T21:48:38.565Z,41.61
2022-09-02T21:51:36.905Z,41.55
2022-09-02T21:54:13.025Z,41.77
2022-09-02T21:57:01.455Z,41.43
2022-09-02T21:59:50.929Z,41.59
2022-09-02T22:02:40.615Z,42.26
2022-09-02T22:05:30.514Z,42.77
2022-09-02T22:08:11.594Z,42.02
2022-09-02T22:11:04.043Z,42.29
2022-09-02T22:13:31.823Z,42.36
2022-09-02T22:16:28.082Z,42.00
2022-09-02T22:19:01.606Z,41.65
2022-09-02T22:21:49.057Z,41.53
2022-09-02T22:24:22.053Z,41.02
2022-09-02T22:26:55.401Z,41.23
2022-09-02T22:29:36.461Z,41.77
2022-09-02T22:32:08.087Z,42.45
2022-09-02T22:34:42.837Z,42.75
2022-09-02T22:37:16.047Z,41.54
2022-09-02T22:39:50.806Z,41.67
2022-09-02T22:42:37.632Z,41.98
2022-09-02T22:45:49.135Z,42.51
2022-09-02T22:48:42.147Z,41.94
2022-09-02T22:51:34.895Z,42.46
2022-09-02T22:54:01.830Z,41.88
2022-09-02T22:56:39.262Z,41.86
2022-09-02T22:59:05.726Z,41.31
2022-09-02T23:02:05.736Z,40.99
2022-09-02T23:04:40.358Z,41.04
2022-09-02T23:07:07.600Z,41.43
2022-09-02T23:09:37.745Z,41.40
2022-09-02T23:12:19.394Z,41.63
2022-09-02T23:15:10.880Z,41.97
2022-09-02T23:18:07.323Z,41.54
2022-09-02T23:20:49.720Z,41.41
2022-09-02T23:23:37.641Z,42.16
2022-09-02T23:26:50.786Z,42.50
2022-09-02T23:29:26.191Z,42.69
2022-09-02T23:32:22.540Z,42.76
2022-09-02T23:35:11.231Z,42.16
2022-09-02T23:38:00.212Z,42.26
2022-09-02T23:40:38.001Z,42.27
2022-09-02T23:43:04.914Z,42.27
2022-09-02T23:45:33.782Z,42.59
2022-09-02T23:48:11.356Z,42.17
2022-09-02T23:50:57.695Z,41.92
2022-09-02T23:53:33.726Z,42.18
2022-09-02T23:56:29.760Z,42.00
2022-09-02T23:59:10.435Z,42.23
